WZZ3817 EPKK-EDDN
Flight info
| Callsign | WZZ3817 |
|---|---|
| Flight time | 0h 58m |
| Altitude | 34000 |
| Route | ADADO DCT UTEVO DCT ETUDA DCT BALTU DCT DONAD DCT OKG N869 NIBIL Q244 PIVIR PIVIR1T |
| Aircraft | A21N/M-SDE2E3FGHIRWXY/LB1 |
Departure
| Time | 2026-05-01 14:15 |
|---|---|
| Airport | Kraków John Paul II International Airport (EPKK) |
Arrival
| Time | 2026-05-01 15:13 |
|---|---|
| Airport | Nuremberg Airport (EDDN) |
| Time | Latitude | Longitude | Altitude | Speed | Heading |
|---|---|---|---|---|---|
| 2026-05-01 14:02 | 50.07710 | 19.80301 | 793 ft | 0 kts | 347° |
| 2026-05-01 14:12 | 50.07722 | 19.80297 | 793 ft | 6 kts | 347° |
| 2026-05-01 14:12 | 50.07762 | 19.80294 | 793 ft | 5 kts | 21° |
| 2026-05-01 14:12 | 50.07786 | 19.80327 | 793 ft | 4 kts | 36° |
| 2026-05-01 14:12 | 50.07811 | 19.80342 | 793 ft | 4 kts | 8° |
| 2026-05-01 14:13 | 50.07833 | 19.80339 | 793 ft | 0 kts | 348° |
| 2026-05-01 14:13 | 50.07871 | 19.80327 | 793 ft | 9 kts | 348° |
| 2026-05-01 14:13 | 50.07935 | 19.80307 | 793 ft | 10 kts | 348° |
| 2026-05-01 14:14 | 50.07997 | 19.80265 | 792 ft | 10 kts | 314° |
| 2026-05-01 14:14 | 50.08009 | 19.80173 | 793 ft | 8 kts | 261° |
| 2026-05-01 14:14 | 50.07993 | 19.80041 | 793 ft | 31 kts | 258° |
| 2026-05-01 14:14 | 50.07900 | 19.79380 | 793 ft | 93 kts | 258° |
| 2026-05-01 14:15 | 50.07715 | 19.78062 | 793 ft | 156 kts | 258° |
| 2026-05-01 14:15 | 50.07454 | 19.76304 | 1154 ft | 171 kts | 262° |
| 2026-05-01 14:15 | 50.07192 | 19.74444 | 1700 ft | 173 kts | 262° |
| 2026-05-01 14:15 | 50.06949 | 19.72657 | 2490 ft | 170 kts | 263° |
| 2026-05-01 14:16 | 50.06688 | 19.70707 | 2820 ft | 198 kts | 261° |
| 2026-05-01 14:16 | 50.06382 | 19.68466 | 3166 ft | 226 kts | 261° |
| 2026-05-01 14:16 | 50.06029 | 19.65935 | 3548 ft | 251 kts | 261° |
| 2026-05-01 14:16 | 50.05646 | 19.63221 | 4230 ft | 262 kts | 261° |
| 2026-05-01 14:17 | 50.05251 | 19.60446 | 5135 ft | 264 kts | 260° |
| 2026-05-01 14:17 | 50.04851 | 19.57632 | 6020 ft | 268 kts | 260° |
| 2026-05-01 14:17 | 50.04456 | 19.54780 | 6873 ft | 271 kts | 263° |
| 2026-05-01 14:17 | 50.04353 | 19.51848 | 7594 ft | 274 kts | 276° |
| 2026-05-01 14:18 | 50.04533 | 19.48862 | 8302 ft | 281 kts | 281° |
| 2026-05-01 14:18 | 50.04801 | 19.45818 | 9025 ft | 287 kts | 283° |
| 2026-05-01 14:18 | 50.05102 | 19.42726 | 9794 ft | 292 kts | 284° |
| 2026-05-01 14:18 | 50.05310 | 19.40640 | 10135 ft | 296 kts | 284° |
| 2026-05-01 14:19 | 50.05736 | 19.36401 | 10288 ft | 297 kts | 284° |
| 2026-05-01 14:19 | 50.06056 | 19.33221 | 10291 ft | 298 kts | 284° |
| 2026-05-01 14:19 | 50.06381 | 19.30007 | 10298 ft | 310 kts | 284° |
| 2026-05-01 14:19 | 50.06741 | 19.26520 | 10284 ft | 337 kts | 284° |
| 2026-05-01 14:20 | 50.06975 | 19.24175 | 10286 ft | 324 kts | 284° |
| 2026-05-01 14:20 | 50.07634 | 19.17484 | 10294 ft | 326 kts | 284° |
| 2026-05-01 14:20 | 50.08006 | 19.13844 | 10490 ft | 350 kts | 283° |
| 2026-05-01 14:21 | 50.08382 | 19.10062 | 11151 ft | 357 kts | 283° |
| 2026-05-01 14:21 | 50.08761 | 19.06213 | 11869 ft | 362 kts | 283° |
| 2026-05-01 14:21 | 50.09145 | 19.02301 | 12568 ft | 368 kts | 283° |
| 2026-05-01 14:22 | 50.09928 | 18.94300 | 13957 ft | 378 kts | 284° |
| 2026-05-01 14:22 | 50.10323 | 18.90244 | 14275 ft | 380 kts | 284° |
| 2026-05-01 14:22 | 50.10720 | 18.86147 | 14645 ft | 385 kts | 284° |
| 2026-05-01 14:22 | 50.11122 | 18.81996 | 15296 ft | 389 kts | 284° |
| 2026-05-01 14:23 | 50.11524 | 18.77815 | 15981 ft | 392 kts | 284° |
| 2026-05-01 14:23 | 50.11929 | 18.73590 | 16651 ft | 396 kts | 284° |
| 2026-05-01 14:23 | 50.12337 | 18.69322 | 17291 ft | 400 kts | 284° |
| 2026-05-01 14:23 | 50.12748 | 18.65010 | 17917 ft | 404 kts | 284° |
| 2026-05-01 14:24 | 50.13162 | 18.60653 | 18523 ft | 408 kts | 283° |
| 2026-05-01 14:24 | 50.13576 | 18.56260 | 19081 ft | 412 kts | 283° |
| 2026-05-01 14:24 | 50.13994 | 18.51822 | 19592 ft | 416 kts | 283° |
| 2026-05-01 14:24 | 50.14407 | 18.47407 | 20114 ft | 419 kts | 283° |
| 2026-05-01 14:25 | 50.14828 | 18.42890 | 20639 ft | 423 kts | 283° |
| 2026-05-01 14:25 | 50.15256 | 18.38277 | 21161 ft | 427 kts | 283° |
| 2026-05-01 14:25 | 50.15676 | 18.33740 | 21670 ft | 430 kts | 283° |
| 2026-05-01 14:25 | 50.16102 | 18.29105 | 22162 ft | 434 kts | 283° |
| 2026-05-01 14:26 | 50.16530 | 18.24435 | 22639 ft | 437 kts | 283° |
| 2026-05-01 14:26 | 50.17391 | 18.14975 | 23580 ft | 444 kts | 283° |
| 2026-05-01 14:26 | 50.17823 | 18.10184 | 24006 ft | 447 kts | 283° |
| 2026-05-01 14:27 | 50.18256 | 18.05371 | 24394 ft | 450 kts | 283° |
| 2026-05-01 14:27 | 50.18690 | 18.00521 | 24784 ft | 452 kts | 283° |
| 2026-05-01 14:27 | 50.19123 | 17.95657 | 25147 ft | 454 kts | 283° |
| 2026-05-01 14:28 | 50.19989 | 17.85851 | 25892 ft | 458 kts | 283° |
| 2026-05-01 14:28 | 50.20423 | 17.80910 | 26255 ft | 460 kts | 283° |
| 2026-05-01 14:28 | 50.20826 | 17.75936 | 26590 ft | 464 kts | 279° |
| 2026-05-01 14:28 | 50.21014 | 17.70888 | 26946 ft | 468 kts | 277° |
| 2026-05-01 14:29 | 50.21084 | 17.65789 | 27299 ft | 470 kts | 275° |
| 2026-05-01 14:29 | 50.21090 | 17.60674 | 27652 ft | 472 kts | 274° |
| 2026-05-01 14:30 | 50.19869 | 17.45252 | 28572 ft | 487 kts | 258° |
| 2026-05-01 14:30 | 50.18967 | 17.40144 | 28859 ft | 489 kts | 257° |
| 2026-05-01 14:30 | 50.17998 | 17.35045 | 29172 ft | 491 kts | 256° |
| 2026-05-01 14:31 | 50.15994 | 17.24897 | 30034 ft | 488 kts | 256° |
| 2026-05-01 14:31 | 50.14993 | 17.19842 | 30421 ft | 487 kts | 256° |
| 2026-05-01 14:31 | 50.14001 | 17.14809 | 30798 ft | 484 kts | 256° |
| 2026-05-01 14:31 | 50.13021 | 17.09815 | 31206 ft | 480 kts | 256° |
| 2026-05-01 14:32 | 50.12046 | 17.04839 | 31499 ft | 481 kts | 257° |
| 2026-05-01 14:32 | 50.11073 | 16.99861 | 31742 ft | 481 kts | 256° |
| 2026-05-01 14:32 | 50.10098 | 16.94885 | 32087 ft | 479 kts | 257° |
| 2026-05-01 14:32 | 50.09125 | 16.89935 | 32399 ft | 477 kts | 257° |
| 2026-05-01 14:33 | 50.08154 | 16.85003 | 32691 ft | 476 kts | 257° |
| 2026-05-01 14:33 | 50.07180 | 16.80073 | 32954 ft | 476 kts | 257° |
| 2026-05-01 14:33 | 50.06206 | 16.75154 | 33198 ft | 475 kts | 257° |
| 2026-05-01 14:33 | 50.05232 | 16.70247 | 33459 ft | 475 kts | 257° |
| 2026-05-01 14:34 | 50.04257 | 16.65350 | 33697 ft | 474 kts | 257° |
| 2026-05-01 14:34 | 50.03281 | 16.60463 | 33967 ft | 471 kts | 257° |
| 2026-05-01 14:34 | 50.02329 | 16.55603 | 34262 ft | 468 kts | 260° |
| 2026-05-01 14:35 | 50.01579 | 16.45681 | 34321 ft | 459 kts | 275° |
| 2026-05-01 14:35 | 50.01796 | 16.35797 | 34320 ft | 457 kts | 278° |
| 2026-05-01 14:36 | 50.02188 | 16.25936 | 34318 ft | 457 kts | 279° |
| 2026-05-01 14:36 | 50.02574 | 16.16142 | 34328 ft | 457 kts | 278° |
| 2026-05-01 14:37 | 50.02927 | 16.06281 | 34329 ft | 456 kts | 278° |
| 2026-05-01 14:37 | 50.03256 | 15.96436 | 34330 ft | 456 kts | 278° |
| 2026-05-01 14:38 | 50.03575 | 15.86588 | 34347 ft | 456 kts | 278° |
| 2026-05-01 14:38 | 50.03886 | 15.76735 | 34347 ft | 456 kts | 277° |
| 2026-05-01 14:39 | 50.04190 | 15.66883 | 34340 ft | 456 kts | 277° |
| 2026-05-01 14:39 | 50.04486 | 15.57023 | 34345 ft | 457 kts | 277° |
| 2026-05-01 14:40 | 50.04774 | 15.47147 | 34332 ft | 457 kts | 277° |
| 2026-05-01 14:40 | 50.05053 | 15.37274 | 34332 ft | 457 kts | 277° |
| 2026-05-01 14:41 | 50.05324 | 15.27390 | 34337 ft | 457 kts | 277° |
| 2026-05-01 14:41 | 50.05587 | 15.17516 | 34345 ft | 456 kts | 276° |
| 2026-05-01 14:42 | 50.05838 | 15.07739 | 34345 ft | 455 kts | 276° |
| 2026-05-01 14:42 | 50.06084 | 14.97849 | 34351 ft | 454 kts | 276° |
| 2026-05-01 14:43 | 50.06319 | 14.88087 | 34362 ft | 454 kts | 276° |
| 2026-05-01 14:43 | 50.06547 | 14.78249 | 34364 ft | 455 kts | 276° |
| 2026-05-01 14:44 | 50.06768 | 14.68420 | 34367 ft | 454 kts | 275° |
| 2026-05-01 14:44 | 50.07081 | 14.53705 | 34380 ft | 453 kts | 275° |
| 2026-05-01 14:45 | 50.07376 | 14.38993 | 34372 ft | 453 kts | 275° |
| 2026-05-01 14:46 | 50.07563 | 14.29186 | 34354 ft | 453 kts | 275° |
| 2026-05-01 14:46 | 50.07826 | 14.14506 | 34374 ft | 452 kts | 274° |
| 2026-05-01 14:47 | 50.07991 | 14.04732 | 34362 ft | 452 kts | 274° |
| 2026-05-01 14:48 | 50.08223 | 13.90066 | 34359 ft | 452 kts | 274° |
| 2026-05-01 14:48 | 50.08437 | 13.75411 | 34365 ft | 451 kts | 274° |
| 2026-05-01 14:49 | 50.08690 | 13.55989 | 34366 ft | 450 kts | 273° |
| 2026-05-01 14:50 | 50.08914 | 13.36489 | 34366 ft | 451 kts | 273° |
| 2026-05-01 14:51 | 50.08759 | 13.21861 | 34091 ft | 448 kts | 270° |
| 2026-05-01 14:52 | 50.08163 | 13.12208 | 33554 ft | 450 kts | 262° |
| 2026-05-01 14:52 | 50.07601 | 13.07422 | 33284 ft | 450 kts | 261° |
| 2026-05-01 14:52 | 50.06186 | 12.97967 | 32755 ft | 448 kts | 256° |
| 2026-05-01 14:53 | 50.05316 | 12.93320 | 32472 ft | 447 kts | 256° |
| 2026-05-01 14:53 | 50.04427 | 12.88701 | 31970 ft | 446 kts | 255° |
| 2026-05-01 14:53 | 50.03534 | 12.84108 | 31466 ft | 443 kts | 255° |
| 2026-05-01 14:53 | 50.02643 | 12.79548 | 30957 ft | 439 kts | 255° |
| 2026-05-01 14:54 | 50.01757 | 12.75023 | 30474 ft | 435 kts | 255° |
| 2026-05-01 14:54 | 50.00876 | 12.70537 | 29900 ft | 432 kts | 255° |
| 2026-05-01 14:54 | 50.00002 | 12.66093 | 29349 ft | 428 kts | 255° |
| 2026-05-01 14:54 | 49.99133 | 12.61689 | 28798 ft | 425 kts | 255° |
| 2026-05-01 14:55 | 49.98269 | 12.57317 | 28256 ft | 422 kts | 255° |
| 2026-05-01 14:55 | 49.97408 | 12.52967 | 27727 ft | 419 kts | 255° |
| 2026-05-01 14:55 | 49.96552 | 12.48656 | 27211 ft | 417 kts | 255° |
| 2026-05-01 14:55 | 49.95698 | 12.44367 | 26702 ft | 414 kts | 255° |
| 2026-05-01 14:56 | 49.94850 | 12.40114 | 26203 ft | 411 kts | 254° |
| 2026-05-01 14:56 | 49.94005 | 12.35885 | 25642 ft | 410 kts | 254° |
| 2026-05-01 14:56 | 49.93159 | 12.31659 | 24924 ft | 410 kts | 254° |
| 2026-05-01 14:56 | 49.92314 | 12.27446 | 24194 ft | 405 kts | 253° |
| 2026-05-01 14:57 | 49.91483 | 12.23322 | 23552 ft | 396 kts | 253° |
| 2026-05-01 14:57 | 49.89851 | 12.15231 | 22114 ft | 399 kts | 253° |
| 2026-05-01 14:57 | 49.89016 | 12.11106 | 21341 ft | 403 kts | 253° |
| 2026-05-01 14:58 | 49.88175 | 12.06960 | 20691 ft | 403 kts | 253° |
| 2026-05-01 14:58 | 49.87332 | 12.02810 | 20076 ft | 403 kts | 253° |
| 2026-05-01 14:58 | 49.86490 | 11.98676 | 19474 ft | 402 kts | 253° |
| 2026-05-01 14:58 | 49.85654 | 11.94583 | 18875 ft | 393 kts | 253° |
| 2026-05-01 14:59 | 49.84840 | 11.90606 | 18236 ft | 382 kts | 252° |
| 2026-05-01 14:59 | 49.84047 | 11.86738 | 17579 ft | 371 kts | 252° |
| 2026-05-01 14:59 | 49.83274 | 11.82975 | 16923 ft | 363 kts | 252° |
| 2026-05-01 14:59 | 49.82516 | 11.79290 | 16293 ft | 356 kts | 252° |
| 2026-05-01 15:00 | 49.81017 | 11.72024 | 15082 ft | 354 kts | 252° |
| 2026-05-01 15:00 | 49.80272 | 11.68424 | 14470 ft | 348 kts | 252° |
| 2026-05-01 15:00 | 49.79538 | 11.64881 | 13848 ft | 345 kts | 251° |
| 2026-05-01 15:01 | 49.78803 | 11.61342 | 13193 ft | 346 kts | 251° |
| 2026-05-01 15:01 | 49.78064 | 11.57787 | 12550 ft | 348 kts | 251° |
| 2026-05-01 15:01 | 49.77323 | 11.54232 | 12026 ft | 345 kts | 251° |
| 2026-05-01 15:01 | 49.76605 | 11.50792 | 11755 ft | 328 kts | 251° |
| 2026-05-01 15:02 | 49.75920 | 11.47508 | 11498 ft | 315 kts | 251° |
| 2026-05-01 15:02 | 49.75694 | 11.46424 | 11417 ft | 312 kts | 251° |
| 2026-05-01 15:02 | 49.74594 | 11.41178 | 11000 ft | 307 kts | 251° |
| 2026-05-01 15:02 | 49.73936 | 11.38042 | 10759 ft | 306 kts | 251° |
| 2026-05-01 15:03 | 49.73278 | 11.34914 | 10516 ft | 306 kts | 251° |
| 2026-05-01 15:03 | 49.72622 | 11.31805 | 10271 ft | 303 kts | 250° |
| 2026-05-01 15:03 | 49.71971 | 11.28717 | 10019 ft | 301 kts | 250° |
| 2026-05-01 15:03 | 49.71323 | 11.25648 | 9754 ft | 299 kts | 250° |
| 2026-05-01 15:04 | 49.70677 | 11.22599 | 9484 ft | 298 kts | 250° |
| 2026-05-01 15:04 | 49.70033 | 11.19561 | 9220 ft | 297 kts | 250° |
| 2026-05-01 15:04 | 49.69392 | 11.16543 | 8968 ft | 296 kts | 250° |
| 2026-05-01 15:04 | 49.68751 | 11.13527 | 8712 ft | 295 kts | 250° |
| 2026-05-01 15:05 | 49.68113 | 11.10531 | 8452 ft | 293 kts | 250° |
| 2026-05-01 15:05 | 49.67477 | 11.07556 | 8343 ft | 291 kts | 250° |
| 2026-05-01 15:05 | 49.66843 | 11.04590 | 8324 ft | 292 kts | 250° |
| 2026-05-01 15:05 | 49.66207 | 11.01614 | 8321 ft | 292 kts | 250° |
| 2026-05-01 15:06 | 49.65575 | 10.98639 | 8187 ft | 292 kts | 250° |
| 2026-05-01 15:06 | 49.64942 | 10.95674 | 7745 ft | 289 kts | 250° |
| 2026-05-01 15:06 | 49.64316 | 10.92741 | 7257 ft | 287 kts | 250° |
| 2026-05-01 15:06 | 49.63698 | 10.89840 | 6701 ft | 283 kts | 250° |
| 2026-05-01 15:07 | 49.63085 | 10.86969 | 6108 ft | 281 kts | 250° |
| 2026-05-01 15:07 | 49.62475 | 10.84124 | 5531 ft | 279 kts | 249° |
| 2026-05-01 15:07 | 49.61877 | 10.81280 | 4944 ft | 279 kts | 249° |
| 2026-05-01 15:07 | 49.60982 | 10.78689 | 4408 ft | 271 kts | 224° |
| 2026-05-01 15:08 | 49.59487 | 10.77056 | 4049 ft | 262 kts | 200° |
| 2026-05-01 15:08 | 49.57758 | 10.76135 | 3996 ft | 263 kts | 191° |
| 2026-05-01 15:08 | 49.55972 | 10.76114 | 4002 ft | 255 kts | 162° |
| 2026-05-01 15:08 | 49.54904 | 10.76826 | 4006 ft | 249 kts | 145° |
| 2026-05-01 15:09 | 49.53614 | 10.78448 | 4012 ft | 233 kts | 133° |
| 2026-05-01 15:09 | 49.52741 | 10.80448 | 4040 ft | 218 kts | 115° |
| 2026-05-01 15:09 | 49.52332 | 10.82542 | 3991 ft | 191 kts | 100° |
| 2026-05-01 15:09 | 49.52164 | 10.84440 | 3946 ft | 171 kts | 98° |
| 2026-05-01 15:10 | 49.51997 | 10.86234 | 3667 ft | 169 kts | 99° |
| 2026-05-01 15:10 | 49.51639 | 10.89806 | 3145 ft | 168 kts | 99° |
| 2026-05-01 15:10 | 49.51466 | 10.91581 | 2906 ft | 167 kts | 100° |
| 2026-05-01 15:11 | 49.51292 | 10.93351 | 2686 ft | 167 kts | 99° |
| 2026-05-01 15:11 | 49.50974 | 10.96585 | 2272 ft | 142 kts | 99° |
| 2026-05-01 15:11 | 49.50829 | 10.98053 | 2093 ft | 138 kts | 99° |
| 2026-05-01 15:12 | 49.50686 | 10.99509 | 1903 ft | 138 kts | 100° |
| 2026-05-01 15:12 | 49.50399 | 11.02424 | 1528 ft | 137 kts | 101° |
| 2026-05-01 15:12 | 49.50256 | 11.03877 | 1350 ft | 138 kts | 101° |
| 2026-05-01 15:13 | 49.49908 | 11.07366 | 1032 ft | 9 kts | 100° |